Currently 83°F in Perris, California, USA
83°F
85°F / 56°F
8 mph NW
0.00"
Monday, July 4, 2022 1:50 PM PDT

Perris, California Weather Summary
Last 36 Hours

Temperature Winds Hourly Humidity Dewpoint
Time Report Norm Report Norm Max Gusts Precip. Rpt. Norm Rpt. Norm Pressure
1Mon 01:50 PM  83.5°F  92°F  8 mph NW  5 mph  12 mph  0.00"  33%  26%  50°F  51°F  29.91"
2Mon 01:19 PM  85.3°F  91°F  6 mph NW  4 mph  11 mph  ----  29%  26%  49°F  51°F  29.91"
Mon 01:00 PM  84.2°F  90°F  2 mph NW  4 mph  10 mph  0.00"  30%  27%  48°F  51°F  29.92"
Mon 12:00 PM  79.8°F  88°F  calm  3 mph  7 mph  0.00"  38%  31%  51°F  53°F  29.94"
Mon 11:00 AM  74.2°F  84°F  5 mph SE  3 mph  9 mph  0.00"  46%  38%  51°F  55°F  29.96"
Mon 10:00 AM  72.2°F  79°F  calm  2 mph  6 mph  0.00"  57%  48%  56°F  57°F  29.96"
Mon 09:00 AM  64.7°F  74°F  calm  2 mph  6 mph  0.00"  74%  60%  56°F  59°F  29.97"
Mon 08:00 AM  61.3°F  69°F  3 mph SE  1 mph  8 mph  0.00"  83%  70%  56°F  59°F  29.96"
Mon 07:00 AM  57.8°F  65°F  3 mph SE  1 mph  6 mph  0.00"  92%  78%  55°F  57°F  29.96"
Mon 06:00 AM  56.3°F  64°F  2 mph SE  1 mph  6 mph  0.00"  93%  78%  54°F  57°F  29.95"
3Mon 05:53 AM  56.0°F  64°F  3 mph SE  1 mph  6 mph  ----  92%  77%  54°F  57°F  29.95"
Mon 05:00 AM  57.3°F  65°F  3 mph SE  1 mph  5 mph  0.00"  90%  76%  54°F  57°F  29.94"
Mon 04:00 AM  58.1°F  66°F  3 mph SE  1 mph  7 mph  0.00"  88%  74%  55°F  57°F  29.93"
Mon 03:00 AM  58.6°F  66°F  2 mph SE  1 mph  6 mph  0.00"  87%  72%  55°F  57°F  29.93"
Mon 02:00 AM  59.3°F  67°F  3 mph SE  1 mph  6 mph  0.00"  85%  70%  55°F  57°F  29.93"
Mon 01:00 AM  59.9°F  69°F  3 mph SE  1 mph  8 mph  0.00"  83%  67%  54°F  57°F  29.93"
Mon 12:00 AM  61.0°F  70°F  3 mph SE  2 mph  7 mph  0.00"  79%  64%  54°F  57°F  29.94"
Sun 11:00 PM  62.8°F  71°F  3 mph SE  2 mph  10 mph  0.00"  73%  60%  54°F  56°F  29.93"
Sun 10:00 PM  65.2°F  74°F  4 mph SE  2 mph  8 mph  0.00"  64%  54%  52°F  56°F  29.93"
Sun 09:00 PM  67.9°F  76°F  calm  3 mph  7 mph  0.00"  54%  49%  50°F  55°F  29.91"
Sun 08:00 PM  71.6°F  80°F  calm  4 mph  10 mph  0.00"  38%  42%  44°F  54°F  29.89"
Sun 07:00 PM  77.8°F  85°F  5 mph NW  6 mph  15 mph  0.00"  43%  34%  53°F  53°F  29.88"
Sun 06:00 PM  80.3°F  88°F  7 mph NW  6 mph  16 mph  0.00"  39%  30%  52°F  52°F  29.86"
Sun 05:00 PM  83.1°F  91°F  9 mph NW  7 mph  18 mph  0.00"  35%  28%  52°F  52°F  29.86"
Sun 04:00 PM  85.9°F  92°F  6 mph NW  7 mph  18 mph  0.00"  32%  27%  51°F  52°F  29.87"
Sun 03:00 PM  87.2°F  93°F  3 mph NW  6 mph  14 mph  0.00"  29%  26%  50°F  52°F  29.88"
Sun 02:00 PM  88.6°F  92°F  5 mph NW  5 mph  12 mph  0.00"  22%  25%  44°F  51°F  29.89"
Sun 01:00 PM  85.7°F  91°F  calm  4 mph  9 mph  0.00"  19%  27%  37°F  51°F  29.91"
Sun 12:00 PM  80.7°F  88°F  calm  3 mph  10 mph  0.00"  27%  31%  42°F  52°F  29.93"
Sun 11:00 AM  78.8°F  84°F  calm  3 mph  10 mph  0.00"  36%  37%  48°F  54°F  29.94"
Sun 10:00 AM  72.3°F  80°F  calm  2 mph  7 mph  0.00"  52%  47%  53°F  57°F  29.94"
Sun 09:00 AM  67.9°F  74°F  calm  2 mph  7 mph  0.00"  67%  59%  56°F  59°F  29.96"
Sun 08:00 AM  63.7°F  69°F  3 mph SE  1 mph  6 mph  0.00"  78%  70%  57°F  59°F  29.95"
Sun 07:00 AM  60.5°F  65°F  calm  1 mph  3 mph  0.00"  85%  77%  56°F  57°F  29.95"
Sun 06:00 AM  59.5°F  64°F  calm  1 mph  5 mph  0.00"  87%  77%  56°F  57°F  29.95"
Sun 05:00 AM  59.2°F  65°F  2 mph SE  1 mph  7 mph  0.00"  90%  76%  56°F  57°F  29.94"
Sun 04:00 AM  59.2°F  66°F  2 mph SE  1 mph  7 mph  0.00"  92%  74%  57°F  57°F  29.93"
Sun 03:00 AM  60.1°F  66°F  3 mph SE  1 mph  7 mph  0.00"  89%  72%  57°F  57°F  29.92"
Sun 02:00 AM  61.7°F  68°F  2 mph SE  1 mph  5 mph  0.00"  81%  70%  56°F  57°F  29.91"

  1. Current weather data. No green row appears if the current weather data is also the high or low for the current day.
  2. High temperature for the current day.
  3. Low temperature for the current day.

The Perris, California weather pages are a service of WeatherCurrents. Perris is located in Southern California's Inland Empire, south of Riverside and north of Sun City, along the Interstate 215 freeway.
Copyright ©2022  WeatherCurrents. All rights reserved. - Submit questions and comments - Privacy Policy

This page automatically refreshes every 10 minutes.